CWL weather

Cardiff International Airport
Cardiff, Wales, United Kingdom

Public forecast

Using degrees Celsius for public forecast. Weather courtesy of forecast.io.

METAR (pilot weather report)

Retrieved 2019/04/24 23:20 UTC (30 minutes ago):

EGFF 242320Z AUTO 12012KT 9999 FEW038 09/08 Q0993

TAF (pilot weather forecast)

Retrieved 2019/04/24 18:00 UTC (6 hours ago):

TAF EGFF 241706Z 2418/2518 12012KT 9999 FEW040 PROB30 TEMPO 2418/2501 6000 SHRA TEMPO 2501/2506 6000 RA SHRA BKN010 PROB30 TEMPO 2501/2506 11015G25KT BKN008 BECMG 2503/2506 17010KT TEMPO 2509/2518 7000 SHRA PROB30 TEMPO 2509/2518 18015G25KT 4000 +SHRA SHGR BKN014 BKN030CB BECMG 2515/2518 23010KT